createdAt,value
2023-03-18T00:00:38.733Z,24.64
2023-03-18T00:03:09.951Z,24.59
2023-03-18T00:05:40.673Z,24.58
2023-03-18T00:08:11.203Z,24.52
2023-03-18T00:10:41.850Z,24.49
2023-03-18T00:13:12.114Z,24.45
2023-03-18T00:15:42.061Z,24.46
2023-03-18T00:18:12.334Z,24.49
2023-03-18T00:20:42.968Z,24.45
2023-03-18T00:23:14.382Z,24.45
2023-03-18T00:25:45.038Z,24.42
2023-03-18T00:28:18.438Z,24.39
2023-03-18T00:30:48.894Z,24.36
2023-03-18T00:33:20.158Z,24.34
2023-03-18T00:35:50.363Z,24.28
2023-03-18T00:38:25.823Z,24.15
2023-03-18T00:41:02.357Z,24.04
2023-03-18T00:43:35.271Z,23.96
2023-03-18T00:46:06.622Z,23.85
2023-03-18T00:48:37.763Z,23.78
2023-03-18T00:51:08.212Z,23.73
2023-03-18T00:53:39.958Z,23.77
2023-03-18T00:56:09.963Z,23.82
2023-03-18T00:58:40.708Z,23.89
2023-03-18T01:01:11.602Z,23.88
2023-03-18T01:03:46.153Z,23.90
2023-03-18T01:06:19.067Z,23.96
2023-03-18T01:08:49.670Z,23.99
2023-03-18T01:11:20.113Z,23.81
2023-03-18T01:13:51.470Z,23.77
2023-03-18T01:16:22.440Z,23.90
2023-03-18T01:18:53.501Z,23.89
2023-03-18T01:21:23.850Z,23.84
2023-03-18T01:24:01.866Z,23.83
2023-03-18T01:26:32.775Z,23.84
2023-03-18T01:29:03.966Z,23.76
2023-03-18T01:31:35.791Z,23.63
2023-03-18T01:34:12.227Z,23.52
2023-03-18T01:36:49.822Z,23.45
2023-03-18T01:39:22.007Z,23.46
2023-03-18T01:41:52.510Z,23.47
2023-03-18T01:44:32.076Z,23.57
2023-03-18T01:47:03.196Z,23.69
2023-03-18T01:49:42.914Z,23.62
2023-03-18T01:52:20.782Z,23.63
2023-03-18T01:55:05.850Z,23.68
2023-03-18T01:57:36.954Z,23.84
2023-03-18T02:00:08.222Z,24.01
2023-03-18T02:02:45.643Z,23.98
2023-03-18T02:05:20.897Z,24.08
2023-03-18T02:07:50.913Z,24.13
2023-03-18T02:10:28.026Z,24.13
2023-03-18T02:13:09.061Z,24.21
2023-03-18T02:16:00.071Z,24.16
2023-03-18T02:18:40.172Z,24.24
2023-03-18T02:21:48.790Z,23.62
2023-03-18T02:24:43.402Z,23.61
2023-03-18T02:27:31.939Z,23.46
2023-03-18T02:30:12.652Z,23.28
2023-03-18T02:32:48.831Z,23.09
2023-03-18T02:35:18.782Z,22.97
2023-03-18T02:37:50.024Z,22.91
2023-03-18T02:40:23.114Z,23.00
2023-03-18T02:42:54.359Z,23.04
2023-03-18T02:45:56.581Z,23.09
2023-03-18T02:48:32.419Z,23.12
2023-03-18T02:51:02.624Z,23.02
2023-03-18T02:53:33.048Z,23.02
2023-03-18T02:56:03.266Z,22.99
2023-03-18T02:58:33.679Z,22.98
2023-03-18T03:01:09.276Z,22.99
2023-03-18T03:03:39.908Z,22.92
2023-03-18T03:06:12.297Z,22.91
2023-03-18T03:08:42.796Z,22.97
2023-03-18T03:11:13.105Z,23.16
2023-03-18T03:13:46.919Z,23.07
2023-03-18T03:16:19.413Z,23.29
2023-03-18T03:18:49.732Z,23.41
2023-03-18T03:21:19.561Z,23.40
2023-03-18T03:23:53.457Z,23.42
2023-03-18T03:26:23.894Z,23.35
2023-03-18T03:28:54.307Z,23.48
2023-03-18T03:31:25.181Z,23.49
2023-03-18T03:33:55.853Z,23.57
2023-03-18T03:36:25.714Z,23.50
2023-03-18T03:38:56.702Z,23.16
2023-03-18T03:41:27.342Z,23.00
2023-03-18T03:43:57.041Z,23.03
2023-03-18T03:46:27.567Z,22.86
2023-03-18T03:48:57.635Z,22.70
2023-03-18T03:51:29.338Z,22.58
2023-03-18T03:53:59.321Z,22.56
2023-03-18T03:56:30.189Z,22.61
2023-03-18T03:59:01.408Z,22.67
2023-03-18T04:01:50.498Z,22.75
2023-03-18T04:04:20.353Z,22.64
2023-03-18T04:06:50.917Z,22.61
2023-03-18T04:09:20.721Z,22.61
2023-03-18T04:11:50.286Z,22.67
2023-03-18T04:14:20.824Z,22.72
2023-03-18T04:16:51.138Z,22.72
2023-03-18T04:19:21.508Z,22.96
2023-03-18T04:21:52.594Z,22.91
2023-03-18T04:24:23.995Z,23.03
2023-03-18T04:26:53.922Z,22.99
2023-03-18T04:29:23.874Z,23.00
2023-03-18T04:31:54.390Z,23.06
2023-03-18T04:34:26.126Z,23.10
2023-03-18T04:36:56.978Z,22.89
2023-03-18T04:39:28.253Z,22.96
2023-03-18T04:41:59.503Z,22.96
2023-03-18T04:44:30.855Z,22.84
2023-03-18T04:47:02.426Z,22.75
2023-03-18T04:49:32.447Z,22.79
2023-03-18T04:52:06.266Z,22.97
2023-03-18T04:54:38.399Z,23.09
2023-03-18T04:57:09.338Z,23.13
2023-03-18T04:59:45.697Z,23.11
2023-03-18T05:02:16.762Z,23.14
2023-03-18T05:04:46.783Z,23.13
2023-03-18T05:07:18.099Z,23.12
2023-03-18T05:09:57.681Z,23.11
2023-03-18T05:12:28.348Z,23.15
2023-03-18T05:14:58.261Z,22.71
2023-03-18T05:17:28.841Z,22.93
2023-03-18T05:20:02.874Z,22.61
2023-03-18T05:22:33.152Z,22.47
2023-03-18T05:25:12.746Z,22.39
2023-03-18T05:27:43.501Z,22.30
2023-03-18T05:30:20.830Z,22.37
2023-03-18T05:32:53.952Z,22.45
2023-03-18T05:35:36.361Z,22.48
2023-03-18T05:38:08.639Z,22.53
2023-03-18T05:40:38.746Z,22.53
2023-03-18T05:43:19.954Z,22.62
2023-03-18T05:45:59.508Z,22.70
2023-03-18T05:48:42.734Z,22.79
2023-03-18T05:51:13.876Z,22.83
2023-03-18T05:53:44.140Z,22.66
2023-03-18T05:56:31.985Z,22.57
2023-03-18T05:59:07.125Z,22.43
2023-03-18T06:01:59.241Z,22.39
2023-03-18T06:04:29.997Z,22.30
2023-03-18T06:07:00.186Z,22.21
2023-03-18T06:09:31.268Z,22.24
2023-03-18T06:12:01.524Z,22.26
2023-03-18T06:14:32.537Z,22.12
2023-03-18T06:17:04.770Z,22.22
2023-03-18T06:19:37.727Z,22.38
2023-03-18T06:22:07.661Z,22.39
2023-03-18T06:24:38.000Z,22.34
2023-03-18T06:27:08.944Z,22.16
2023-03-18T06:29:42.835Z,22.00
2023-03-18T06:32:16.784Z,21.97
2023-03-18T06:34:47.306Z,22.00
2023-03-18T06:37:17.766Z,21.89
2023-03-18T06:39:48.723Z,21.89
2023-03-18T06:42:20.123Z,21.82
2023-03-18T06:45:03.811Z,21.73
2023-03-18T06:47:47.838Z,21.71
2023-03-18T06:50:18.722Z,21.75
2023-03-18T06:52:49.612Z,21.76
2023-03-18T06:55:27.098Z,21.94
2023-03-18T06:57:57.710Z,21.88
2023-03-18T07:00:35.428Z,21.93
2023-03-18T07:03:07.050Z,21.97
2023-03-18T07:05:37.250Z,22.06
2023-03-18T07:08:07.873Z,22.11
2023-03-18T07:10:38.171Z,22.24
2023-03-18T07:13:14.774Z,22.31
2023-03-18T07:15:45.207Z,22.30
2023-03-18T07:18:15.654Z,22.26
2023-03-18T07:20:49.489Z,22.33
2023-03-18T07:23:19.288Z,22.34
2023-03-18T07:25:48.979Z,22.27
2023-03-18T07:28:22.251Z,22.13
2023-03-18T07:30:54.293Z,21.95
2023-03-18T07:33:25.461Z,21.91
2023-03-18T07:35:56.539Z,21.84
2023-03-18T07:38:26.787Z,21.80
2023-03-18T07:40:57.695Z,21.77
2023-03-18T07:43:28.145Z,21.68
2023-03-18T07:45:57.896Z,21.67
2023-03-18T07:48:28.256Z,21.76
2023-03-18T07:50:58.145Z,21.88
2023-03-18T07:53:29.622Z,21.95
2023-03-18T07:55:59.691Z,22.09
2023-03-18T07:58:30.108Z,21.98
2023-03-18T08:01:00.977Z,21.89
2023-03-18T08:03:30.819Z,22.02
2023-03-18T08:06:01.769Z,22.09
2023-03-18T08:08:31.560Z,22.10
2023-03-18T08:11:01.500Z,22.16
2023-03-18T08:13:31.732Z,22.08
2023-03-18T08:16:01.352Z,22.01
2023-03-18T08:18:31.254Z,22.07
2023-03-18T08:21:02.134Z,22.14
2023-03-18T08:23:31.973Z,22.08
2023-03-18T08:26:02.187Z,21.80
2023-03-18T08:28:32.082Z,21.99
2023-03-18T08:31:02.473Z,21.99
2023-03-18T08:33:32.829Z,22.09
2023-03-18T08:36:03.092Z,22.06
2023-03-18T08:38:32.928Z,21.99
2023-03-18T08:41:03.174Z,21.47
2023-03-18T08:43:33.025Z,21.35
2023-03-18T08:46:03.762Z,21.24
2023-03-18T08:48:33.604Z,21.24
2023-03-18T08:51:09.319Z,21.30
2023-03-18T08:53:39.913Z,21.31
2023-03-18T08:56:10.038Z,21.37
2023-03-18T08:58:40.332Z,21.42
2023-03-18T09:01:11.927Z,21.37
2023-03-18T09:03:42.489Z,21.47
2023-03-18T09:06:12.893Z,21.63
2023-03-18T09:08:45.015Z,21.68
2023-03-18T09:11:14.982Z,21.68
2023-03-18T09:13:45.208Z,21.67
2023-03-18T09:16:15.070Z,21.81
2023-03-18T09:18:47.074Z,21.54
2023-03-18T09:21:18.518Z,21.54
2023-03-18T09:23:50.449Z,21.38
2023-03-18T09:26:20.202Z,21.53
2023-03-18T09:28:50.460Z,21.51
2023-03-18T09:31:21.890Z,21.44
2023-03-18T09:33:51.864Z,21.36
2023-03-18T09:36:21.520Z,21.48
2023-03-18T09:38:51.809Z,21.65
2023-03-18T09:41:37.479Z,21.75
2023-03-18T09:44:31.732Z,21.91
2023-03-18T09:47:32.464Z,22.10
2023-03-18T09:50:14.956Z,22.40
2023-03-18T09:52:54.594Z,22.64
2023-03-18T09:55:43.436Z,22.92
2023-03-18T09:58:34.698Z,22.93
2023-03-18T10:01:08.415Z,23.05
2023-03-18T10:03:50.120Z,23.37
2023-03-18T10:06:23.622Z,23.44
2023-03-18T10:09:16.479Z,23.61
2023-03-18T10:11:52.380Z,23.96
2023-03-18T10:14:43.790Z,24.29
2023-03-18T10:17:25.904Z,24.75
2023-03-18T10:20:06.006Z,24.98
2023-03-18T10:22:56.358Z,25.21
2023-03-18T10:25:35.043Z,25.54
2023-03-18T10:28:42.629Z,25.79
2023-03-18T10:31:24.762Z,26.15
2023-03-18T10:34:25.334Z,26.15
2023-03-18T10:37:12.546Z,26.48
2023-03-18T10:39:46.878Z,26.78
2023-03-18T10:42:26.418Z,27.17
2023-03-18T10:45:06.645Z,27.73
2023-03-18T10:47:42.088Z,27.29
2023-03-18T10:50:20.132Z,27.03
2023-03-18T10:52:58.250Z,27.02
2023-03-18T10:55:35.412Z,27.20
2023-03-18T10:58:20.644Z,27.44
2023-03-18T11:00:52.534Z,28.02
2023-03-18T11:03:34.415Z,28.22
2023-03-18T11:06:06.906Z,28.82
2023-03-18T11:08:38.043Z,29.53
2023-03-18T11:11:28.846Z,29.79
2023-03-18T11:13:59.546Z,30.36
2023-03-18T11:16:42.708Z,30.74
2023-03-18T11:19:34.008Z,31.05
2023-03-18T11:22:05.676Z,31.35
2023-03-18T11:24:44.951Z,31.35
2023-03-18T11:27:18.297Z,31.19
2023-03-18T11:30:02.798Z,31.20
2023-03-18T11:32:35.397Z,31.76
2023-03-18T11:35:09.774Z,32.25
2023-03-18T11:37:42.577Z,31.81
2023-03-18T11:40:27.464Z,32.60
2023-03-18T11:43:05.704Z,33.25
2023-03-18T11:45:47.563Z,34.25
2023-03-18T11:48:26.260Z,34.32
2023-03-18T11:51:11.465Z,34.08
2023-03-18T11:54:05.981Z,34.35
2023-03-18T11:56:43.387Z,35.08
2023-03-18T11:59:29.024Z,35.39
2023-03-18T12:02:22.074Z,35.49
2023-03-18T12:05:18.257Z,36.16
2023-03-18T12:08:19.673Z,36.08
2023-03-18T12:11:13.412Z,36.48
2023-03-18T12:14:09.171Z,35.80
2023-03-18T12:16:42.479Z,36.44
2023-03-18T12:19:21.044Z,37.03
2023-03-18T12:22:14.212Z,37.29
2023-03-18T12:24:49.800Z,37.88
2023-03-18T12:27:28.830Z,37.99
2023-03-18T12:30:11.146Z,37.81
2023-03-18T12:32:47.776Z,37.77
2023-03-18T12:35:36.663Z,38.32
2023-03-18T12:38:34.368Z,38.27
2023-03-18T12:41:29.158Z,38.12
2023-03-18T12:44:11.122Z,37.98
2023-03-18T12:46:49.559Z,37.16
2023-03-18T12:49:25.751Z,37.85
2023-03-18T12:52:07.431Z,38.35
2023-03-18T12:55:12.592Z,38.38
2023-03-18T12:58:00.776Z,38.74
2023-03-18T13:00:45.781Z,38.16
2023-03-18T13:03:43.406Z,38.91
2023-03-18T13:06:22.208Z,38.68
2023-03-18T13:09:11.008Z,38.41
2023-03-18T13:11:56.144Z,39.41
2023-03-18T13:14:28.824Z,40.06
2023-03-18T13:17:02.754Z,40.45
2023-03-18T13:19:36.784Z,41.01
2023-03-18T13:22:21.831Z,40.83
2023-03-18T13:24:59.477Z,40.91
2023-03-18T13:27:35.449Z,41.19
2023-03-18T13:30:26.173Z,41.46
2023-03-18T13:33:28.700Z,41.53
2023-03-18T13:36:05.354Z,41.94
2023-03-18T13:38:53.189Z,41.61
2023-03-18T13:41:54.234Z,41.52
2023-03-18T13:44:34.000Z,41.83
2023-03-18T13:47:08.605Z,41.28
2023-03-18T13:49:40.368Z,41.09
2023-03-18T13:52:44.054Z,42.25
2023-03-18T13:55:35.579Z,40.81
2023-03-18T13:58:17.609Z,41.08
2023-03-18T14:01:16.736Z,40.94
2023-03-18T14:03:47.727Z,40.67
2023-03-18T14:06:17.996Z,41.86
2023-03-18T14:08:50.981Z,41.93
2023-03-18T14:11:23.924Z,42.12
2023-03-18T14:14:01.811Z,41.15
2023-03-18T14:16:48.519Z,41.33
2023-03-18T14:19:35.441Z,41.27
2023-03-18T14:22:25.119Z,42.22
2023-03-18T14:25:23.109Z,42.84
2023-03-18T14:28:08.911Z,42.74
2023-03-18T14:30:38.985Z,43.00
2023-03-18T14:33:21.313Z,42.81
2023-03-18T14:36:10.235Z,41.91
2023-03-18T14:39:08.258Z,42.66
2023-03-18T14:41:48.296Z,42.78
2023-03-18T14:44:42.974Z,43.52
2023-03-18T14:47:39.685Z,43.99
2023-03-18T14:50:22.451Z,42.83
2023-03-18T14:53:03.382Z,42.60
2023-03-18T14:55:39.630Z,43.52
2023-03-18T14:58:17.902Z,43.07
2023-03-18T15:00:52.807Z,42.09
2023-03-18T15:03:33.668Z,41.17
2023-03-18T15:06:08.546Z,41.89
2023-03-18T15:08:48.147Z,40.74
2023-03-18T15:11:22.032Z,41.83
2023-03-18T15:13:59.899Z,42.40
2023-03-18T15:16:37.800Z,42.81
2023-03-18T15:19:07.822Z,43.26
2023-03-18T15:21:38.774Z,43.18
2023-03-18T15:24:10.652Z,43.49
2023-03-18T15:26:44.837Z,43.60
2023-03-18T15:29:29.008Z,43.44
2023-03-18T15:32:21.378Z,42.73
2023-03-18T15:35:19.199Z,41.84
2023-03-18T15:38:16.920Z,42.87
2023-03-18T15:40:54.541Z,43.29
2023-03-18T15:43:50.293Z,43.29
2023-03-18T15:46:32.115Z,43.18
2023-03-18T15:49:06.630Z,43.49
2023-03-18T15:51:49.198Z,43.47
2023-03-18T15:54:41.077Z,43.48
2023-03-18T15:57:22.347Z,43.93
2023-03-18T15:59:55.196Z,43.94
2023-03-18T16:02:26.788Z,44.66
2023-03-18T16:05:16.731Z,45.27
2023-03-18T16:07:47.858Z,45.47
2023-03-18T16:10:21.689Z,45.41
2023-03-18T16:13:03.375Z,45.19
2023-03-18T16:15:34.006Z,43.02
2023-03-18T16:18:03.953Z,41.58
2023-03-18T16:20:34.622Z,42.90
2023-03-18T16:23:04.465Z,42.00
2023-03-18T16:25:34.510Z,43.09
2023-03-18T16:28:05.291Z,42.02
2023-03-18T16:30:37.278Z,41.80
2023-03-18T16:33:13.908Z,41.24
2023-03-18T16:35:44.818Z,41.12
2023-03-18T16:38:20.069Z,40.79
2023-03-18T16:40:50.080Z,40.17
2023-03-18T16:43:20.998Z,41.18
2023-03-18T16:45:51.817Z,40.26
2023-03-18T16:48:23.460Z,41.35
2023-03-18T16:50:55.437Z,41.91
2023-03-18T16:53:31.184Z,40.89
2023-03-18T16:56:16.148Z,40.86
2023-03-18T16:58:46.594Z,40.95
2023-03-18T17:01:18.325Z,42.10
2023-03-18T17:03:49.210Z,41.71
2023-03-18T17:06:19.951Z,42.23
2023-03-18T17:08:49.760Z,41.15
2023-03-18T17:11:20.278Z,40.50
2023-03-18T17:13:50.062Z,40.26
2023-03-18T17:16:23.872Z,40.99
2023-03-18T17:18:53.810Z,41.44
2023-03-18T17:21:24.448Z,42.54
2023-03-18T17:23:54.382Z,42.37
2023-03-18T17:26:26.758Z,41.61
2023-03-18T17:28:58.172Z,41.11
2023-03-18T17:31:28.027Z,39.97
2023-03-18T17:33:58.367Z,40.44
2023-03-18T17:36:28.836Z,41.20
2023-03-18T17:39:01.314Z,41.62
2023-03-18T17:41:31.357Z,41.84
2023-03-18T17:44:00.994Z,41.08
2023-03-18T17:46:32.226Z,39.98
2023-03-18T17:49:05.308Z,40.42
2023-03-18T17:51:35.743Z,40.26
2023-03-18T17:54:09.418Z,40.32
2023-03-18T17:56:40.120Z,40.55
2023-03-18T17:59:16.877Z,42.39
2023-03-18T18:01:49.533Z,41.32
2023-03-18T18:04:21.951Z,39.26
2023-03-18T18:06:52.713Z,38.50
2023-03-18T18:09:23.228Z,38.32
2023-03-18T18:11:54.318Z,39.28
2023-03-18T18:14:27.150Z,38.80
2023-03-18T18:16:58.137Z,38.57
2023-03-18T18:19:28.238Z,39.36
2023-03-18T18:21:59.779Z,38.56
2023-03-18T18:24:34.622Z,38.32
2023-03-18T18:27:05.870Z,38.26
2023-03-18T18:29:35.920Z,37.98
2023-03-18T18:32:06.791Z,37.50
2023-03-18T18:34:37.003Z,37.61
2023-03-18T18:37:07.865Z,38.20
2023-03-18T18:39:37.736Z,37.66
2023-03-18T18:42:08.748Z,38.21
2023-03-18T18:44:38.772Z,38.35
2023-03-18T18:47:20.205Z,38.96
2023-03-18T18:49:52.390Z,38.92
2023-03-18T18:52:22.627Z,39.09
2023-03-18T18:54:52.460Z,38.42
2023-03-18T18:57:34.461Z,38.01
2023-03-18T19:00:08.171Z,38.19
2023-03-18T19:02:40.203Z,37.96
2023-03-18T19:05:11.010Z,38.08
2023-03-18T19:07:46.499Z,37.29
2023-03-18T19:10:18.809Z,37.02
2023-03-18T19:12:49.152Z,36.85
2023-03-18T19:15:22.643Z,36.73
2023-03-18T19:17:52.942Z,37.63
2023-03-18T19:20:32.379Z,37.00
2023-03-18T19:23:02.655Z,36.54
2023-03-18T19:25:32.579Z,36.50
2023-03-18T19:28:03.129Z,36.59
2023-03-18T19:30:32.966Z,36.71
2023-03-18T19:33:04.029Z,37.34
2023-03-18T19:35:34.796Z,37.20
2023-03-18T19:38:05.244Z,37.74
2023-03-18T19:40:35.418Z,36.82
2023-03-18T19:43:22.752Z,36.34
2023-03-18T19:45:52.765Z,35.79
2023-03-18T19:48:25.573Z,35.37
2023-03-18T19:50:57.889Z,35.09
2023-03-18T19:53:28.862Z,34.94
2023-03-18T19:55:59.515Z,34.76
2023-03-18T19:58:29.456Z,34.48
2023-03-18T20:01:01.501Z,34.28
2023-03-18T20:03:31.349Z,34.23
2023-03-18T20:06:01.983Z,34.20
2023-03-18T20:08:31.763Z,34.07
2023-03-18T20:11:01.694Z,33.98
2023-03-18T20:13:32.834Z,33.93
2023-03-18T20:16:02.739Z,33.85
2023-03-18T20:18:32.490Z,33.61
2023-03-18T20:21:02.771Z,33.41
2023-03-18T20:23:34.112Z,33.24
2023-03-18T20:26:04.498Z,33.12
2023-03-18T20:28:34.357Z,32.93
2023-03-18T20:31:05.235Z,32.72
2023-03-18T20:33:35.095Z,32.52
2023-03-18T20:36:06.228Z,32.35
2023-03-18T20:38:39.224Z,32.26
2023-03-18T20:41:09.820Z,32.13
2023-03-18T20:43:39.735Z,32.04
2023-03-18T20:46:14.665Z,31.80
2023-03-18T20:48:46.110Z,31.66
2023-03-18T20:51:20.676Z,31.49
2023-03-18T20:53:51.422Z,31.37
2023-03-18T20:56:24.048Z,31.25
2023-03-18T20:58:54.394Z,31.10
2023-03-18T21:01:24.340Z,30.94
2023-03-18T21:03:55.040Z,30.82
2023-03-18T21:06:24.913Z,30.61
2023-03-18T21:08:55.148Z,30.42
2023-03-18T21:11:31.103Z,30.20
2023-03-18T21:14:01.537Z,29.95
2023-03-18T21:16:31.820Z,29.79
2023-03-18T21:19:04.097Z,29.61
2023-03-18T21:21:40.894Z,29.39
2023-03-18T21:24:37.165Z,29.23
2023-03-18T21:27:07.052Z,29.11
2023-03-18T21:29:36.922Z,28.99
2023-03-18T21:32:07.590Z,28.79
2023-03-18T21:34:37.628Z,28.53
2023-03-18T21:37:17.131Z,28.31
2023-03-18T21:39:47.969Z,28.01
2023-03-18T21:42:24.354Z,27.73
2023-03-18T21:44:58.402Z,27.48
2023-03-18T21:47:29.225Z,27.31
2023-03-18T21:49:58.946Z,27.14
2023-03-18T21:52:33.582Z,26.99
2023-03-18T21:55:06.217Z,26.91
2023-03-18T21:57:38.249Z,26.68
2023-03-18T22:00:08.824Z,26.60
2023-03-18T22:02:41.541Z,26.59
2023-03-18T22:05:22.833Z,26.48
2023-03-18T22:07:53.181Z,26.40
2023-03-18T22:10:24.840Z,26.35
2023-03-18T22:12:54.769Z,26.28
2023-03-18T22:15:30.405Z,26.34
2023-03-18T22:18:00.197Z,26.37
2023-03-18T22:20:30.084Z,26.34
2023-03-18T22:23:00.300Z,26.28
2023-03-18T22:25:33.437Z,26.06
2023-03-18T22:28:04.406Z,26.01
2023-03-18T22:30:35.939Z,26.01
2023-03-18T22:33:07.901Z,25.85
2023-03-18T22:35:37.915Z,25.90
2023-03-18T22:38:10.836Z,25.92
2023-03-18T22:40:42.639Z,25.94
2023-03-18T22:43:28.872Z,25.89
2023-03-18T22:45:59.515Z,25.95
2023-03-18T22:48:30.516Z,25.88
2023-03-18T22:51:02.452Z,25.73
2023-03-18T22:53:42.719Z,25.61
2023-03-18T22:56:14.678Z,25.53
2023-03-18T22:58:45.223Z,25.41
2023-03-18T23:01:19.971Z,25.42
2023-03-18T23:03:50.337Z,25.36
2023-03-18T23:06:24.771Z,25.23
2023-03-18T23:08:55.041Z,25.20
2023-03-18T23:11:24.647Z,25.15
2023-03-18T23:13:55.076Z,25.09
2023-03-18T23:16:27.104Z,25.09
2023-03-18T23:18:56.969Z,25.09
2023-03-18T23:21:27.625Z,24.88
2023-03-18T23:23:58.062Z,24.77
2023-03-18T23:26:28.282Z,24.61
2023-03-18T23:28:57.881Z,24.53
2023-03-18T23:31:28.443Z,24.47
2023-03-18T23:33:58.698Z,24.34
2023-03-18T23:36:28.431Z,24.26
2023-03-18T23:38:58.023Z,24.09
2023-03-18T23:41:28.223Z,23.94
2023-03-18T23:43:57.768Z,23.75
2023-03-18T23:46:27.594Z,23.56
2023-03-18T23:48:58.434Z,23.36
2023-03-18T23:51:28.257Z,23.29
2023-03-18T23:53:57.835Z,23.25
2023-03-18T23:56:28.059Z,23.17
2023-03-18T23:58:57.869Z,23.14
